Time;durP1;ratioP1;P1;durP2;ratioP2;P2;SDS_P1;SDS_P2;PMS_P1;PMS_P2;Temp;Humidity;BMP_temperature;BMP_pressure;BME280_temperature;BME280_humidity;BME280_pressure;Samples;Min_cycle;Max_cycle;Signal;HPM_P1;HPM_P2
2022/03/06 00:02:07;;;;;;;26.05;15.52;;;;;;;;;;5082492;28;20114;-68
2022/03/06 00:04:33;;;;;;;23.80;14.52;;;;;;;;;;5082024;28;20534;-68
2022/03/06 00:06:59;;;;;;;23.10;15.73;;;;;;;;;;5099736;28;20023;-68
2022/03/06 00:09:25;;;;;;;25.13;14.55;;;;;;;;;;5078100;28;20028;-68
2022/03/06 00:11:52;;;;;;;27.17;15.98;;;;;;;;;;5098876;28;20020;-67
2022/03/06 00:14:18;;;;;;;27.00;15.75;;;;;;;;;;5099787;28;20032;-67
2022/03/06 00:16:44;;;;;;;26.23;15.13;;;;;;;;;;5099780;28;20227;-68
2022/03/06 00:19:10;;;;;;;25.58;14.43;;;;;;;;;;5080965;28;20533;-68
2022/03/06 00:21:36;;;;;;;28.05;14.70;;;;;;;;;;5110848;28;20024;-68
2022/03/06 00:24:03;;;;;;;22.90;14.48;;;;;;;;;;5096615;28;20077;-68
2022/03/06 00:26:29;;;;;;;23.13;13.63;;;;;;;;;;5099727;28;20020;-68
2022/03/06 00:28:55;;;;;;;22.42;14.45;;;;;;;;;;5099391;28;20135;-68
2022/03/06 00:31:24;;;;;;;24.08;14.32;;;;;;;;;;5081820;28;20420;-68
2022/03/06 00:33:51;;;;;;;24.65;14.85;;;;;;;;;;5098393;28;20024;-67
2022/03/06 00:36:17;;;;;;;26.05;15.57;;;;;;;;;;5076718;28;20028;-68
2022/03/06 00:38:43;;;;;;;26.15;15.43;;;;;;;;;;5098841;28;20046;-68
2022/03/06 00:41:10;;;;;;;21.75;14.05;;;;;;;;;;5099457;28;20481;-67
2022/03/06 00:43:36;;;;;;;21.10;13.83;;;;;;;;;;5081509;28;20410;-69
2022/03/06 00:46:02;;;;;;;22.17;13.63;;;;;;;;;;5098823;28;20264;-68
2022/03/06 00:48:28;;;;;;;20.38;13.40;;;;;;;;;;5095436;28;20036;-68
2022/03/06 00:50:55;;;;;;;24.70;13.77;;;;;;;;;;5097555;28;20024;-68
2022/03/06 00:53:21;;;;;;;25.58;14.73;;;;;;;;;;5099061;28;20059;-68
2022/03/06 00:55:47;;;;;;;23.58;13.88;;;;;;;;;;5080780;28;20063;-68
2022/03/06 00:58:13;;;;;;;23.50;14.43;;;;;;;;;;5099072;28;20494;-68
2022/03/06 01:00:40;;;;;;;23.00;14.25;;;;;;;;;;5096637;28;20032;-68
2022/03/06 01:03:07;;;;;;;23.40;13.50;;;;;;;;;;5096476;28;20496;-68
2022/03/06 01:05:34;;;;;;;23.23;13.95;;;;;;;;;;5097926;28;20417;-68
2022/03/06 01:08:00;;;;;;;23.58;14.43;;;;;;;;;;5098779;28;20035;-68
2022/03/06 01:10:26;;;;;;;22.83;14.77;;;;;;;;;;5098311;28;20032;-68
2022/03/06 01:12:52;;;;;;;21.98;14.85;;;;;;;;;;5098274;28;20022;-68
2022/03/06 01:15:18;;;;;;;23.13;14.15;;;;;;;;;;5094757;28;20061;-68
2022/03/06 01:17:44;;;;;;;24.67;14.85;;;;;;;;;;5079708;28;20032;-68
2022/03/06 01:20:11;;;;;;;20.73;13.80;;;;;;;;;;5098115;28;20425;-68
2022/03/06 01:22:37;;;;;;;24.70;14.38;;;;;;;;;;5098751;28;20028;-68
2022/03/06 01:25:03;;;;;;;21.50;13.45;;;;;;;;;;5098322;28;20050;-68
2022/03/06 01:27:29;;;;;;;23.83;14.45;;;;;;;;;;5094916;28;20066;-68
2022/03/06 01:29:55;;;;;;;22.83;14.35;;;;;;;;;;5096798;28;20050;-68
2022/03/06 01:32:21;;;;;;;23.25;14.32;;;;;;;;;;5098035;28;20032;-68
2022/03/06 01:34:47;;;;;;;23.23;13.80;;;;;;;;;;5097994;28;20069;-68
2022/03/06 01:37:13;;;;;;;20.10;12.77;;;;;;;;;;5098358;28;20027;-67
2022/03/06 01:39:39;;;;;;;23.58;14.45;;;;;;;;;;5095971;28;20031;-67
2022/03/06 01:42:05;;;;;;;22.65;14.45;;;;;;;;;;5094755;28;20160;-68
2022/03/06 01:44:31;;;;;;;23.17;12.93;;;;;;;;;;5097815;28;20058;-68
2022/03/06 01:46:58;;;;;;;22.05;13.95;;;;;;;;;;5097909;28;20476;-68
2022/03/06 01:49:23;;;;;;;22.27;13.80;;;;;;;;;;5080122;28;20385;-69
2022/03/06 01:51:49;;;;;;;23.02;15.52;;;;;;;;;;5097196;28;20016;-68
2022/03/06 01:54:15;;;;;;;24.42;14.50;;;;;;;;;;5094487;28;20050;-68
2022/03/06 01:56:42;;;;;;;26.30;15.13;;;;;;;;;;5078744;28;20465;-68
2022/03/06 01:59:09;;;;;;;21.55;12.40;;;;;;;;;;5080185;28;20075;-68
2022/03/06 02:01:35;;;;;;;25.05;14.85;;;;;;;;;;5097685;28;20028;-67
2022/03/06 02:04:01;;;;;;;23.23;13.98;;;;;;;;;;5097044;28;20041;-68
2022/03/06 02:06:28;;;;;;;22.33;13.27;;;;;;;;;;5075419;28;20023;-68
2022/03/06 02:08:55;;;;;;;25.15;14.27;;;;;;;;;;5096355;28;20028;-68
2022/03/06 02:11:22;;;;;;;21.45;13.40;;;;;;;;;;5097858;28;20108;-68
2022/03/06 02:13:48;;;;;;;20.75;12.88;;;;;;;;;;5097583;28;20028;-68
2022/03/06 02:16:14;;;;;;;21.42;12.95;;;;;;;;;;5097435;28;20416;-67
2022/03/06 02:18:40;;;;;;;21.38;12.15;;;;;;;;;;5094545;28;20027;-67
2022/03/06 02:21:07;;;;;;;18.27;12.13;;;;;;;;;;5094872;28;20035;-68
2022/03/06 02:23:33;;;;;;;22.27;13.50;;;;;;;;;;5078800;28;20070;-68
2022/03/06 02:25:59;;;;;;;16.55;10.23;;;;;;;;;;5079692;28;20108;-68
2022/03/06 02:28:25;;;;;;;21.67;12.60;;;;;;;;;;5096355;28;20824;-68
2022/03/06 02:30:51;;;;;;;23.52;13.18;;;;;;;;;;5096489;28;20030;-68
2022/03/06 02:33:17;;;;;;;20.08;12.30;;;;;;;;;;5075119;28;20027;-68
2022/03/06 02:35:43;;;;;;;21.02;13.32;;;;;;;;;;5096492;28;20028;-68
2022/03/06 02:38:09;;;;;;;16.95;9.68;;;;;;;;;;5079499;28;20038;-68
2022/03/06 02:40:41;;;;;;;22.48;13.45;;;;;;;;;;5097020;28;20501;-70
2022/03/06 02:43:08;;;;;;;17.23;10.23;;;;;;;;;;5096907;28;20027;-68
2022/03/06 02:45:35;;;;;;;23.50;11.65;;;;;;;;;;5093909;28;20106;-67
2022/03/06 02:48:02;;;;;;;17.88;11.35;;;;;;;;;;5094168;28;20024;-70
2022/03/06 02:50:29;;;;;;;18.27;10.68;;;;;;;;;;5097049;28;20020;-67
2022/03/06 02:52:56;;;;;;;13.38;8.52;;;;;;;;;;5096869;28;20023;-67
2022/03/06 02:55:22;;;;;;;18.92;10.35;;;;;;;;;;5096919;28;20493;-68
2022/03/06 02:57:49;;;;;;;22.45;10.70;;;;;;;;;;5095491;28;20031;-68
2022/03/06 03:00:18;;;;;;;15.30;10.55;;;;;;;;;;5093058;28;20501;-68
2022/03/06 03:02:44;;;;;;;19.15;10.02;;;;;;;;;;5096301;28;20028;-68
2022/03/06 03:05:11;;;;;;;16.63;10.55;;;;;;;;;;5096800;28;20027;-69
2022/03/06 03:07:44;;;;;;;19.67;9.93;;;;;;;;;;5096047;28;20035;-69
2022/03/06 03:10:11;;;;;;;15.88;8.95;;;;;;;;;;5096704;28;20019;-68
2022/03/06 03:12:37;;;;;;;14.70;9.05;;;;;;;;;;5093969;28;20040;-69
2022/03/06 03:15:04;;;;;;;16.02;9.43;;;;;;;;;;5093551;28;20537;-68
2022/03/06 03:17:30;;;;;;;15.45;9.40;;;;;;;;;;5095882;28;20419;-68
2022/03/06 03:19:56;;;;;;;16.33;9.85;;;;;;;;;;5096621;28;20044;-68
2022/03/06 03:22:22;;;;;;;16.30;9.48;;;;;;;;;;5096330;28;20024;-68
2022/03/06 03:24:48;;;;;;;14.90;8.93;;;;;;;;;;5095359;28;20019;-68
2022/03/06 03:27:14;;;;;;;18.95;8.77;;;;;;;;;;5093057;28;20028;-68
2022/03/06 03:29:40;;;;;;;10.43;6.38;;;;;;;;;;5094929;28;20070;-68
2022/03/06 03:32:07;;;;;;;9.00;5.43;;;;;;;;;;5078801;28;20020;-69
2022/03/06 03:34:33;;;;;;;15.38;7.22;;;;;;;;;;5096593;28;20032;-66
2022/03/06 03:36:59;;;;;;;13.48;8.07;;;;;;;;;;5096383;28;20038;-67
2022/03/06 03:39:25;;;;;;;17.23;10.07;;;;;;;;;;5092226;28;20031;-68
2022/03/06 03:41:51;;;;;;;16.42;9.52;;;;;;;;;;5094752;28;20055;-67
2022/03/06 03:44:17;;;;;;;15.82;8.82;;;;;;;;;;5096136;28;20032;-69
2022/03/06 03:46:43;;;;;;;14.98;8.95;;;;;;;;;;5096374;28;20028;-67
2022/03/06 03:49:11;;;;;;;17.45;9.05;;;;;;;;;;5078806;28;20468;-66
2022/03/06 03:51:38;;;;;;;16.55;9.43;;;;;;;;;;5093390;28;20097;-67
2022/03/06 03:54:04;;;;;;;15.98;9.48;;;;;;;;;;5093738;28;20111;-67
2022/03/06 03:56:30;;;;;;;14.65;8.27;;;;;;;;;;5095294;28;20020;-67
2022/03/06 03:58:56;;;;;;;13.88;8.48;;;;;;;;;;5095883;28;20070;-67
2022/03/06 04:01:22;;;;;;;14.25;8.63;;;;;;;;;;5095901;28;20016;-67
2022/03/06 04:03:48;;;;;;;15.23;8.65;;;;;;;;;;5095111;28;20085;-67
2022/03/06 04:06:14;;;;;;;16.80;8.90;;;;;;;;;;5092081;28;20067;-67
2022/03/06 04:08:40;;;;;;;16.88;9.10;;;;;;;;;;5095702;28;20494;-67
2022/03/06 04:11:06;;;;;;;15.40;9.20;;;;;;;;;;5096101;28;20032;-67
2022/03/06 04:13:32;;;;;;;13.05;8.60;;;;;;;;;;5098066;28;20032;-66
2022/03/06 04:15:58;;;;;;;18.40;8.68;;;;;;;;;;5106687;28;20020;-69
2022/03/06 04:18:24;;;;;;;15.77;8.82;;;;;;;;;;5091712;28;20494;-67
2022/03/06 04:20:50;;;;;;;15.48;9.07;;;;;;;;;;5095510;28;20116;-67
2022/03/06 04:23:16;;;;;;;14.52;8.43;;;;;;;;;;5095471;28;20071;-67
2022/03/06 04:25:42;;;;;;;17.45;8.88;;;;;;;;;;5077824;28;20059;-67
2022/03/06 04:28:09;;;;;;;13.07;8.50;;;;;;;;;;5095453;28;20090;-66
2022/03/06 04:30:35;;;;;;;14.98;8.65;;;;;;;;;;5096614;28;20020;-68
2022/03/06 04:33:01;;;;;;;14.75;8.65;;;;;;;;;;5097178;28;20022;-67
2022/03/06 04:35:27;;;;;;;13.57;8.43;;;;;;;;;;5099133;28;20115;-67
2022/03/06 04:37:53;;;;;;;15.20;8.38;;;;;;;;;;5099455;28;20387;-67
2022/03/06 04:40:19;;;;;;;13.45;8.48;;;;;;;;;;5099124;28;20044;-66
2022/03/06 04:42:45;;;;;;;15.63;8.73;;;;;;;;;;5097614;28;20024;-67
2022/03/06 04:45:11;;;;;;;14.35;7.63;;;;;;;;;;5096351;28;20469;-67
2022/03/06 04:47:37;;;;;;;15.45;8.70;;;;;;;;;;5098917;28;20088;-67
2022/03/06 04:50:04;;;;;;;15.07;8.07;;;;;;;;;;5098716;28;20153;-66
2022/03/06 04:52:30;;;;;;;13.27;8.18;;;;;;;;;;5100866;28;20035;-67
2022/03/06 04:54:56;;;;;;;14.82;7.50;;;;;;;;;;5110982;28;20031;-68
2022/03/06 04:57:22;;;;;;;13.82;8.05;;;;;;;;;;5094824;28;20024;-68
2022/03/06 04:59:48;;;;;;;14.25;8.07;;;;;;;;;;5098007;28;20043;-68
2022/03/06 05:02:14;;;;;;;13.20;7.90;;;;;;;;;;5098594;28;20027;-68
2022/03/06 05:04:40;;;;;;;14.00;8.25;;;;;;;;;;5099103;28;20097;-67
2022/03/06 05:07:06;;;;;;;13.90;8.13;;;;;;;;;;5081335;28;20281;-67
2022/03/06 05:09:32;;;;;;;13.73;7.68;;;;;;;;;;5077902;28;20459;-67
2022/03/06 05:11:58;;;;;;;13.20;7.95;;;;;;;;;;5095713;28;20032;-67
2022/03/06 05:14:24;;;;;;;15.20;8.15;;;;;;;;;;5099058;28;20028;-67
2022/03/06 05:16:50;;;;;;;12.95;7.22;;;;;;;;;;5081138;28;20027;-67
2022/03/06 05:19:16;;;;;;;13.30;7.63;;;;;;;;;;5098418;28;20403;-67
2022/03/06 05:21:42;;;;;;;12.70;7.18;;;;;;;;;;5096740;28;20020;-67
2022/03/06 05:24:08;;;;;;;13.38;7.47;;;;;;;;;;5095976;28;20374;-68
2022/03/06 05:26:34;;;;;;;11.77;7.10;;;;;;;;;;5079268;28;20469;-67
2022/03/06 05:29:00;;;;;;;11.90;7.22;;;;;;;;;;5098153;28;20074;-67
2022/03/06 05:31:27;;;;;;;12.20;6.88;;;;;;;;;;5081119;28;20056;-67
2022/03/06 05:33:53;;;;;;;12.18;7.07;;;;;;;;;;5098012;28;20088;-68
2022/03/06 05:36:19;;;;;;;13.63;6.85;;;;;;;;;;5094067;28;20020;-68
2022/03/06 05:38:45;;;;;;;11.52;6.82;;;;;;;;;;5097678;28;20180;-68
2022/03/06 05:41:11;;;;;;;13.20;7.85;;;;;;;;;;5097657;28;20043;-68
2022/03/06 05:43:37;;;;;;;12.85;7.05;;;;;;;;;;5098202;28;20066;-68
2022/03/06 05:46:03;;;;;;;15.35;6.95;;;;;;;;;;5098225;28;20019;-69
2022/03/06 05:48:29;;;;;;;12.60;7.05;;;;;;;;;;5093933;28;20496;-68
2022/03/06 05:50:55;;;;;;;13.30;7.00;;;;;;;;;;5096680;28;20160;-68
2022/03/06 05:53:21;;;;;;;12.25;7.47;;;;;;;;;;5098034;28;20062;-68
2022/03/06 05:55:47;;;;;;;11.38;6.55;;;;;;;;;;5097579;28;20473;-68
2022/03/06 05:58:13;;;;;;;11.75;6.65;;;;;;;;;;5097393;28;20028;-68
2022/03/06 06:00:39;;;;;;;12.30;6.43;;;;;;;;;;5095306;28;20365;-68
2022/03/06 06:03:05;;;;;;;13.05;7.20;;;;;;;;;;5095366;28;20099;-68
2022/03/06 06:05:31;;;;;;;12.20;7.00;;;;;;;;;;5088162;28;20177;-68
2022/03/06 06:07:57;;;;;;;10.20;6.45;;;;;;;;;;5100189;28;20480;-68
2022/03/06 06:10:23;;;;;;;14.82;7.03;;;;;;;;;;5098274;28;20031;-68
2022/03/06 06:12:49;;;;;;;13.95;6.57;;;;;;;;;;5109368;28;20476;-68
2022/03/06 06:15:16;;;;;;;16.10;6.88;;;;;;;;;;5094128;28;20043;-68
2022/03/06 06:17:42;;;;;;;12.55;7.00;;;;;;;;;;5096808;28;20042;-68
2022/03/06 06:20:08;;;;;;;13.55;6.93;;;;;;;;;;5097423;28;20040;-68
2022/03/06 06:22:35;;;;;;;13.65;7.40;;;;;;;;;;5096797;28;20028;-67
2022/03/06 06:25:01;;;;;;;11.95;6.97;;;;;;;;;;5097644;28;20031;-67
2022/03/06 06:27:28;;;;;;;12.18;7.22;;;;;;;;;;5093379;28;20361;-67
2022/03/06 06:29:54;;;;;;;11.73;7.05;;;;;;;;;;5077385;28;20047;-67
2022/03/06 06:32:20;;;;;;;12.48;6.50;;;;;;;;;;5106487;28;20023;-68
2022/03/06 06:34:47;;;;;;;12.25;7.68;;;;;;;;;;5083981;28;20032;-67
2022/03/06 06:37:15;;;;;;;14.95;7.93;;;;;;;;;;5096504;28;20032;-67
2022/03/06 06:39:41;;;;;;;13.52;7.13;;;;;;;;;;5094808;28;20060;-67
2022/03/06 06:42:08;;;;;;;13.23;6.93;;;;;;;;;;5094655;28;20028;-68
2022/03/06 06:44:34;;;;;;;13.38;7.60;;;;;;;;;;5096695;28;20035;-67
2022/03/06 06:47:00;;;;;;;12.60;7.07;;;;;;;;;;5096679;28;20024;-67
2022/03/06 06:49:26;;;;;;;13.57;7.38;;;;;;;;;;5097827;28;20046;-68
2022/03/06 06:51:52;;;;;;;14.15;6.95;;;;;;;;;;5108053;28;20484;-67
2022/03/06 06:54:18;;;;;;;13.85;7.00;;;;;;;;;;5093103;28;20035;-67
2022/03/06 06:56:44;;;;;;;12.10;6.97;;;;;;;;;;5077553;28;20122;-68
2022/03/06 06:59:11;;;;;;;14.63;7.75;;;;;;;;;;5079062;28;20042;-67
2022/03/06 07:01:37;;;;;;;12.48;6.97;;;;;;;;;;5096771;28;20039;-67
2022/03/06 07:04:03;;;;;;;12.32;7.38;;;;;;;;;;5096783;28;20031;-68
2022/03/06 07:06:29;;;;;;;14.85;7.30;;;;;;;;;;5091888;28;20032;-67
2022/03/06 07:08:55;;;;;;;14.40;8.05;;;;;;;;;;5095281;28;20108;-68
2022/03/06 07:11:21;;;;;;;14.75;7.13;;;;;;;;;;5096767;28;20028;-68
2022/03/06 07:13:47;;;;;;;12.90;7.47;;;;;;;;;;5096533;28;20442;-68
2022/03/06 07:16:13;;;;;;;12.88;7.93;;;;;;;;;;5096521;28;20024;-68
2022/03/06 07:18:39;;;;;;;11.32;7.43;;;;;;;;;;5093714;28;20020;-68
2022/03/06 07:21:05;;;;;;;15.70;7.55;;;;;;;;;;5093310;28;20028;-68
2022/03/06 07:23:31;;;;;;;13.48;6.85;;;;;;;;;;5086814;28;20027;-67
2022/03/06 07:25:57;;;;;;;12.45;7.65;;;;;;;;;;5099467;28;20099;-68
2022/03/06 07:28:24;;;;;;;12.30;7.47;;;;;;;;;;5096970;28;20044;-68
2022/03/06 07:30:49;;;;;;;12.13;7.15;;;;;;;;;;5089916;28;20468;-67
2022/03/06 07:33:16;;;;;;;13.20;7.35;;;;;;;;;;5092302;28;20054;-67
2022/03/06 07:35:42;;;;;;;16.42;7.78;;;;;;;;;;5095351;28;20469;-68
2022/03/06 07:38:08;;;;;;;13.35;7.70;;;;;;;;;;5096438;28;20162;-68
2022/03/06 07:40:34;;;;;;;15.02;8.57;;;;;;;;;;5096048;28;20153;-68
2022/03/06 07:43:00;;;;;;;13.52;8.30;;;;;;;;;;5096374;28;20015;-68
2022/03/06 07:45:26;;;;;;;14.90;8.55;;;;;;;;;;5091923;28;20077;-67
2022/03/06 07:47:52;;;;;;;12.90;8.50;;;;;;;;;;5095423;28;20048;-67
2022/03/06 07:50:19;;;;;;;13.63;8.23;;;;;;;;;;5095684;28;20028;-67
2022/03/06 07:52:45;;;;;;;14.77;7.93;;;;;;;;;;5095675;28;20035;-67
2022/03/06 07:55:11;;;;;;;14.35;8.00;;;;;;;;;;5096060;28;20422;-68
2022/03/06 07:57:37;;;;;;;14.90;8.00;;;;;;;;;;5093626;28;20051;-67
2022/03/06 08:00:05;;;;;;;15.02;8.30;;;;;;;;;;5093195;28;20036;-68
2022/03/06 08:02:31;;;;;;;14.83;8.47;;;;;;;;;;5095536;28;20427;-67
2022/03/06 08:04:57;;;;;;;14.27;8.20;;;;;;;;;;5098838;28;20265;-69
2022/03/06 08:07:23;;;;;;;14.57;8.60;;;;;;;;;;5100926;28;20030;-68
2022/03/06 08:09:49;;;;;;;13.88;8.57;;;;;;;;;;5111814;28;20059;-67
2022/03/06 08:12:15;;;;;;;13.60;7.40;;;;;;;;;;5095606;28;20031;-68
2022/03/06 08:14:41;;;;;;;14.23;7.60;;;;;;;;;;5099471;28;20024;-68
2022/03/06 08:17:07;;;;;;;19.60;8.52;;;;;;;;;;5099827;28;20468;-68
2022/03/06 08:19:33;;;;;;;14.25;8.02;;;;;;;;;;5099205;28;20051;-68
2022/03/06 08:21:59;;;;;;;12.57;8.40;;;;;;;;;;5082052;28;20020;-68
2022/03/06 08:24:25;;;;;;;15.48;8.85;;;;;;;;;;5095519;28;20149;-67
2022/03/06 08:26:51;;;;;;;13.32;8.60;;;;;;;;;;5110403;28;20024;-68
2022/03/06 08:29:17;;;;;;;13.80;8.25;;;;;;;;;;5099400;28;20532;-67
2022/03/06 08:31:43;;;;;;;14.98;8.35;;;;;;;;;;5081782;28;20028;-67
2022/03/06 08:34:09;;;;;;;14.60;8.50;;;;;;;;;;5099172;28;20488;-66
2022/03/06 08:36:35;;;;;;;15.90;8.93;;;;;;;;;;5078204;28;20385;-68
2022/03/06 08:39:01;;;;;;;16.40;9.93;;;;;;;;;;5097070;28;20121;-68
2022/03/06 08:41:27;;;;;;;18.92;10.32;;;;;;;;;;5099663;28;20028;-68
2022/03/06 08:43:53;;;;;;;12.32;8.48;;;;;;;;;;5099433;28;20032;-68
2022/03/06 08:46:19;;;;;;;17.30;10.02;;;;;;;;;;5098947;28;20452;-68
2022/03/06 08:48:45;;;;;;;15.30;9.98;;;;;;;;;;5097074;28;20074;-68
2022/03/06 08:51:13;;;;;;;17.50;11.23;;;;;;;;;;5078043;28;20078;-68
2022/03/06 08:53:39;;;;;;;16.30;10.90;;;;;;;;;;5098368;28;20052;-68
2022/03/06 08:56:05;;;;;;;15.02;9.85;;;;;;;;;;5081445;28;20059;-68
2022/03/06 08:58:31;;;;;;;16.52;10.82;;;;;;;;;;5099163;28;20103;-67
2022/03/06 09:00:57;;;;;;;19.35;11.93;;;;;;;;;;5098480;28;20111;-69
2022/03/06 09:03:23;;;;;;;17.25;10.50;;;;;;;;;;5076091;28;20103;-68
2022/03/06 09:05:50;;;;;;;15.73;9.63;;;;;;;;;;5098298;28;20028;-68
2022/03/06 09:08:16;;;;;;;17.08;10.05;;;;;;;;;;5081230;28;20069;-69
2022/03/06 09:10:42;;;;;;;18.40;11.32;;;;;;;;;;5098360;28;20419;-68
2022/03/06 09:13:08;;;;;;;14.48;8.40;;;;;;;;;;5098316;28;20024;-68
2022/03/06 09:15:35;;;;;;;16.45;9.90;;;;;;;;;;5095310;28;20062;-68
2022/03/06 09:18:01;;;;;;;17.20;10.05;;;;;;;;;;5095981;28;20129;-68
2022/03/06 09:20:27;;;;;;;18.95;10.27;;;;;;;;;;5098713;28;20040;-68
2022/03/06 09:22:54;;;;;;;15.55;10.18;;;;;;;;;;5098163;28;20031;-68
2022/03/06 09:25:20;;;;;;;19.27;11.93;;;;;;;;;;5098340;28;20052;-68
2022/03/06 09:27:46;;;;;;;15.32;9.38;;;;;;;;;;5097046;28;20023;-68
2022/03/06 09:30:13;;;;;;;20.13;11.55;;;;;;;;;;5076937;28;20054;-69
2022/03/06 09:32:39;;;;;;;17.23;10.63;;;;;;;;;;5097668;28;20024;-68
2022/03/06 09:35:06;;;;;;;15.75;10.10;;;;;;;;;;5097758;28;20124;-68
2022/03/06 09:37:33;;;;;;;17.52;9.98;;;;;;;;;;5097857;28;20046;-68
2022/03/06 09:39:59;;;;;;;16.40;10.07;;;;;;;;;;5098147;28;20031;-68
2022/03/06 09:42:25;;;;;;;18.10;10.13;;;;;;;;;;5093731;28;20020;-68
2022/03/06 09:44:51;;;;;;;15.02;8.50;;;;;;;;;;5097055;28;20031;-67
2022/03/06 09:47:17;;;;;;;20.77;12.05;;;;;;;;;;5097617;28;20020;-68
2022/03/06 09:49:44;;;;;;;16.40;10.75;;;;;;;;;;5098052;28;20435;-68
2022/03/06 09:52:11;;;;;;;12.48;7.43;;;;;;;;;;5097747;28;20488;-68
2022/03/06 09:54:37;;;;;;;16.77;10.15;;;;;;;;;;5094260;28;20032;-68
2022/03/06 09:57:03;;;;;;;14.90;9.82;;;;;;;;;;5095322;28;20031;-67
2022/03/06 09:59:31;;;;;;;14.65;7.70;;;;;;;;;;5097808;28;20081;-68
2022/03/06 10:02:07;;;;;;;15.63;10.30;;;;;;;;;;5097246;28;20119;-68
2022/03/06 10:04:34;;;;;;;11.07;6.90;;;;;;;;;;5080064;28;20024;-68
2022/03/06 10:07:04;;;;;;;15.50;9.85;;;;;;;;;;5079919;28;20103;-68
2022/03/06 10:09:30;;;;;;;14.98;10.07;;;;;;;;;;5093568;28;20059;-68
2022/03/06 10:11:56;;;;;;;13.95;7.85;;;;;;;;;;5077573;28;20096;-68
2022/03/06 10:14:36;;;;;;;16.48;10.75;;;;;;;;;;5097679;28;20063;-68
2022/03/06 10:17:09;;;;;;;14.13;7.78;;;;;;;;;;5097076;28;20111;-68
2022/03/06 10:19:48;;;;;;;15.65;9.80;;;;;;;;;;5097188;28;20113;-67
2022/03/06 10:22:14;;;;;;;17.25;10.65;;;;;;;;;;5079704;28;20015;-68
2022/03/06 10:24:50;;;;;;;16.75;10.85;;;;;;;;;;5095171;28;20473;-67
2022/03/06 10:27:17;;;;;;;10.65;5.95;;;;;;;;;;5074278;28;20373;-68
2022/03/06 10:29:43;;;;;;;14.95;9.65;;;;;;;;;;5096447;28;20390;-68
2022/03/06 10:32:09;;;;;;;13.90;8.82;;;;;;;;;;5079350;28;20111;-68
2022/03/06 10:34:36;;;;;;;14.30;8.95;;;;;;;;;;5096843;28;20032;-68
2022/03/06 10:37:02;;;;;;;17.00;11.02;;;;;;;;;;5096958;28;20553;-68
2022/03/06 10:39:29;;;;;;;16.75;9.60;;;;;;;;;;5093357;28;20400;-68
2022/03/06 10:41:56;;;;;;;15.67;9.73;;;;;;;;;;5077416;28;20406;-68
2022/03/06 10:44:42;;;;;;;16.70;9.88;;;;;;;;;;5097174;28;20397;-68
2022/03/06 10:47:07;;;;;;;14.43;7.93;;;;;;;;;;5096186;28;20081;-68
2022/03/06 10:49:33;;;;;;;13.57;8.27;;;;;;;;;;5096957;28;20088;-68
2022/03/06 10:52:20;;;;;;;17.10;10.20;;;;;;;;;;5079127;28;20364;-68
2022/03/06 10:55:04;;;;;;;11.65;6.90;;;;;;;;;;5094768;28;20575;-67
2022/03/06 10:57:30;;;;;;;11.23;6.95;;;;;;;;;;5092862;28;20024;-68
2022/03/06 10:59:57;;;;;;;13.50;8.02;;;;;;;;;;5076862;28;20032;-68
2022/03/06 11:02:25;;;;;;;14.07;8.48;;;;;;;;;;5097128;28;20396;-67
2022/03/06 11:04:53;;;;;;;13.00;7.25;;;;;;;;;;5096105;28;20158;-67
2022/03/06 11:07:19;;;;;;;12.60;8.07;;;;;;;;;;5096553;28;20023;-68
2022/03/06 11:09:46;;;;;;;16.08;9.65;;;;;;;;;;5094359;28;20489;-68
2022/03/06 11:12:13;;;;;;;12.05;7.53;;;;;;;;;;5093371;28;20028;-67
2022/03/06 11:14:40;;;;;;;16.55;10.63;;;;;;;;;;5077903;28;20063;-67
2022/03/06 11:17:06;;;;;;;18.13;10.35;;;;;;;;;;5096389;28;20020;-67
2022/03/06 11:19:34;;;;;;;13.88;9.02;;;;;;;;;;5095989;28;20036;-67
2022/03/06 11:22:03;;;;;;;18.58;10.63;;;;;;;;;;5096499;28;20487;-68
2022/03/06 11:24:30;;;;;;;16.83;9.73;;;;;;;;;;5092364;28;20023;-67
2022/03/06 11:27:15;;;;;;;16.57;10.27;;;;;;;;;;5094395;28;20027;-67
2022/03/06 11:29:50;;;;;;;16.85;10.45;;;;;;;;;;5095737;28;20285;-68
2022/03/06 11:32:23;;;;;;;14.20;8.65;;;;;;;;;;5096436;28;20028;-67
2022/03/06 11:34:52;;;;;;;15.80;9.82;;;;;;;;;;5096409;28;20028;-68
2022/03/06 11:37:18;;;;;;;17.30;10.75;;;;;;;;;;5095759;28;20517;-68
2022/03/06 11:39:45;;;;;;;18.63;9.65;;;;;;;;;;5098689;28;20079;-68
2022/03/06 11:42:30;;;;;;;17.33;10.52;;;;;;;;;;5097542;28;20056;-67
2022/03/06 11:44:57;;;;;;;14.57;9.70;;;;;;;;;;5111684;28;20066;-67
2022/03/06 11:47:35;;;;;;;14.32;8.93;;;;;;;;;;5100420;28;20021;-67
2022/03/06 11:50:02;;;;;;;10.88;6.88;;;;;;;;;;5099843;28;20132;-67
2022/03/06 11:52:27;;;;;;;15.40;9.88;;;;;;;;;;5100442;28;20016;-67
2022/03/06 11:54:54;;;;;;;12.35;7.85;;;;;;;;;;5099814;28;20102;-67
2022/03/06 11:57:38;;;;;;;12.55;7.38;;;;;;;;;;5096092;28;20027;-67
2022/03/06 12:00:18;;;;;;;16.33;10.25;;;;;;;;;;5111281;28;20549;-67
2022/03/06 12:02:47;;;;;;;16.17;9.35;;;;;;;;;;5099338;28;20050;-68
2022/03/06 12:05:17;;;;;;;15.05;10.23;;;;;;;;;;5100168;28;20052;-68
2022/03/06 12:07:43;;;;;;;14.23;8.52;;;;;;;;;;5100062;28;20032;-68
2022/03/06 12:10:10;;;;;;;14.32;9.15;;;;;;;;;;5081796;28;20023;-67
2022/03/06 12:12:37;;;;;;;14.50;8.90;;;;;;;;;;5079578;28;20511;-68
2022/03/06 12:15:16;;;;;;;16.38;9.95;;;;;;;;;;5097147;28;20024;-67
2022/03/06 12:17:43;;;;;;;19.50;9.77;;;;;;;;;;5098998;28;20107;-68
2022/03/06 12:20:09;;;;;;;12.52;8.68;;;;;;;;;;5099801;28;20043;-67
2022/03/06 12:22:36;;;;;;;11.48;6.97;;;;;;;;;;5081818;28;20099;-67
2022/03/06 12:25:11;;;;;;;15.77;9.47;;;;;;;;;;5099697;28;20054;-68
2022/03/06 12:27:38;;;;;;;15.73;8.25;;;;;;;;;;5096657;28;20063;-67
2022/03/06 12:30:11;;;;;;;13.07;8.48;;;;;;;;;;5078485;28;20051;-67
2022/03/06 12:32:38;;;;;;;14.57;9.23;;;;;;;;;;5098934;28;20028;-68
2022/03/06 12:35:07;;;;;;;14.05;9.20;;;;;;;;;;5099655;28;20549;-68
2022/03/06 12:37:38;;;;;;;13.23;9.13;;;;;;;;;;5099854;28;20016;-67
2022/03/06 12:40:06;;;;;;;14.68;9.00;;;;;;;;;;5099030;28;20036;-67
2022/03/06 12:42:33;;;;;;;14.63;9.40;;;;;;;;;;5096021;28;20028;-68
2022/03/06 12:45:04;;;;;;;16.55;9.75;;;;;;;;;;5097050;28;20024;-67
2022/03/06 12:47:30;;;;;;;13.50;9.23;;;;;;;;;;5109360;28;20043;-67
2022/03/06 12:49:59;;;;;;;16.35;9.95;;;;;;;;;;5101754;28;20213;-67
2022/03/06 12:52:28;;;;;;;;;;;;;;;;;;5099811;28;20388;-67
2022/03/06 12:54:55;;;;;;;15.52;8.68;;;;;;;;;;5098529;28;19903;-68
2022/03/06 12:57:22;;;;;;;12.80;7.70;;;;;;;;;;5075990;28;20059;-68
2022/03/06 12:59:48;;;;;;;13.57;9.00;;;;;;;;;;5080475;28;20028;-69
2022/03/06 13:02:19;;;;;;;14.38;8.60;;;;;;;;;;5099247;28;20016;-69
2022/03/06 13:04:49;;;;;;;14.82;9.57;;;;;;;;;;5098991;28;20476;-68
2022/03/06 13:07:15;;;;;;;15.90;9.07;;;;;;;;;;5080896;28;20072;-68
2022/03/06 13:09:41;;;;;;;20.55;13.88;;;;;;;;;;5096351;28;20028;-69
2022/03/06 13:12:08;;;;;;;13.85;8.90;;;;;;;;;;5096045;28;20043;-69
2022/03/06 13:14:34;;;;;;;10.75;5.95;;;;;;;;;;5098405;28;20115;-68
2022/03/06 13:17:01;;;;;;;17.02;9.65;;;;;;;;;;5098889;28;20027;-68
2022/03/06 13:19:27;;;;;;;11.65;7.53;;;;;;;;;;5078141;28;20497;-67
2022/03/06 13:21:53;;;;;;;14.43;8.73;;;;;;;;;;5080444;28;20469;-68
2022/03/06 13:24:19;;;;;;;13.98;7.93;;;;;;;;;;5094236;28;20039;-67
2022/03/06 13:26:46;;;;;;;15.32;9.18;;;;;;;;;;5098308;28;20030;-68
2022/03/06 13:29:15;;;;;;;14.68;9.07;;;;;;;;;;5098477;28;20435;-68
2022/03/06 13:31:42;;;;;;;15.52;9.93;;;;;;;;;;5097813;28;20040;-68
2022/03/06 13:34:10;;;;;;;13.82;8.27;;;;;;;;;;5098740;28;20051;-68
2022/03/06 13:36:37;;;;;;;14.88;9.73;;;;;;;;;;5095707;28;20028;-68
2022/03/06 13:39:08;;;;;;;14.05;8.10;;;;;;;;;;5077526;28;20604;-68
2022/03/06 13:41:35;;;;;;;13.48;8.77;;;;;;;;;;5088457;28;20039;-67
2022/03/06 13:44:04;;;;;;;12.90;7.22;;;;;;;;;;5101324;28;20034;-68
2022/03/06 13:46:35;;;;;;;15.52;8.98;;;;;;;;;;5098007;28;20028;-68
2022/03/06 13:49:15;;;;;;;13.45;8.65;;;;;;;;;;5098389;28;20020;-68
2022/03/06 13:51:42;;;;;;;13.32;8.13;;;;;;;;;;5095505;28;20024;-68
2022/03/06 13:54:08;;;;;;;13.07;8.68;;;;;;;;;;5077994;28;20055;-68
2022/03/06 13:56:39;;;;;;;13.25;9.68;;;;;;;;;;5097408;28;20523;-68
2022/03/06 13:59:06;;;;;;;13.93;9.00;;;;;;;;;;5098060;28;20074;-68
2022/03/06 14:01:33;;;;;;;13.88;7.95;;;;;;;;;;5096775;28;20020;-68
2022/03/06 14:04:00;;;;;;;15.98;8.68;;;;;;;;;;5097715;28;20024;-68
2022/03/06 14:06:52;;;;;;;14.20;8.43;;;;;;;;;;5093362;28;20106;-68
2022/03/06 14:09:19;;;;;;;13.57;8.48;;;;;;;;;;5089678;28;20496;-69
2022/03/06 14:11:45;;;;;;;13.75;8.63;;;;;;;;;;5078824;28;20118;-68
2022/03/06 14:14:11;;;;;;;14.30;9.32;;;;;;;;;;5097781;28;20618;-68
2022/03/06 14:16:37;;;;;;;15.23;8.88;;;;;;;;;;5097412;28;20043;-68
2022/03/06 14:19:04;;;;;;;13.50;7.55;;;;;;;;;;5097527;28;20023;-68
2022/03/06 14:21:30;;;;;;;12.65;7.60;;;;;;;;;;5093475;28;20032;-68
2022/03/06 14:23:56;;;;;;;14.10;8.55;;;;;;;;;;5095696;28;20024;-68
2022/03/06 14:26:25;;;;;;;14.10;8.52;;;;;;;;;;5074977;28;20112;-68